Elkton, KY

7:02 PM CDT on March 27, 2017 (GMT -0500)
MD3900 | | Change Station

Elev 747 ft 36.88 °N, 87.17 °W | Updated 53 minutes ago

Rain
Rain
56.0 °F
Feels Like 56.0 °F
N
0.0
Wind Variable Wind from West
Gusts 0.0 mph

Today
High -- | Low -- °F
--% Chance of Precip.
Yesterday
High -- | Low -- °F
Precip. -- in
Pressure 29.83 in
Visibility 10.0 miles
Clouds Few 600 ft
Mostly Cloudy 6000 ft
Dew Point 55 °F
Humidity 97%
Rainfall 0.67 in
Snow Depth Not available.
6:41 AM 7:06 PM
Waning Crescent, 0% visible
METAR KHOP 272358Z AUTO 14006KT 10SM -TSRA FEW006 BKN060 14/14 A2983 RMK AO2 LTG DSNT SW RAE25DZB25E30RAB54 TSB50 SLP102 P0003 60063 T01430143 10240 20136 55009
Pressure 29.83 in
Visibility 10.0 miles
Clouds Few 600 ft
Mostly Cloudy 6000 ft
Dew Point 55 °F
Humidity 97%
Rainfall 0.67 in
Snow Depth Not available.
6:41 AM 7:06 PM
Waning Crescent, 0% visible
METAR KHOP 272358Z AUTO 14006KT 10SM -TSRA FEW006 BKN060 14/14 A2983 RMK AO2 LTG DSNT SW RAE25DZB25E30RAB54 TSB50 SLP102 P0003 60063 T01430143 10240 20136 55009

Get Severe Weather Alerts

Thanks for signing up!

Be on the lookout for a verification email in your inbox.

You'll start receiving the daily forecast at 8 AM.

×

10-Day Weather Forecast

Almanac

Astronomy

Mar. 27, 2017 Rise Set
Actual Time
Civil Twilight
Nautical Twilight
Astronomical Twilight
Moon
Length of Visible Light
Length of Day
Tomorrow will be .
, % of the Moon is Illuminated

Today's Extremes

State Highs State Lows

Community

WunderPhotos

Upload Photos

1,962,540 photos uploaded!

WunderBlog® & News

Nearby

Air Quality

  Air Quality AQ Index Pollutant
Not available.

Snow Depth

Station Depth Elevation

Earthquake Activity

City Distance Mag. Time & Date
Minimum magnitude displayed is 2.5.

Earthquake Activity

City Distance Mag. Time & Date
Minimum magnitude displayed is 2.5.

Coastal Water Temperatures

Place Temperature

Stations

Nearby Weather Stations

Station Location Temp. Windchill Dew Point Humidity Wind Precip. Elev Updated Type
                   

Watches & Warnings

There are currently no watches in effect.